createdAt,value
2022-12-18T10:00:11.680Z,98.4
2022-12-18T10:05:11.516Z,98.9
2022-12-18T10:10:11.503Z,99.3
2022-12-18T10:15:11.590Z,99.2
2022-12-18T10:20:11.632Z,99.4
2022-12-18T10:25:11.507Z,99.3
2022-12-18T10:30:11.429Z,99.9
2022-12-18T10:35:11.434Z,99.9
2022-12-18T10:40:14.233Z,99.9
2022-12-18T10:45:11.428Z,99.9
2022-12-18T10:50:11.438Z,99.9
2022-12-18T10:55:11.434Z,99.9
2022-12-18T11:00:11.571Z,99.9
2022-12-18T11:05:11.484Z,99.9
2022-12-18T11:10:11.418Z,99.9
2022-12-18T11:15:11.443Z,99.9
2022-12-18T11:20:11.566Z,99.9
2022-12-18T11:25:36.996Z,99.9
2022-12-18T11:30:11.536Z,99.9
2022-12-18T11:35:11.444Z,99.9
2022-12-18T11:40:11.543Z,99.9
2022-12-18T11:45:11.451Z,99.9
2022-12-18T11:50:11.446Z,99.9
2022-12-18T11:55:11.466Z,99.9
2022-12-18T12:00:11.538Z,99.9
2022-12-18T12:05:11.426Z,99.9
2022-12-18T12:10:11.415Z,99.9
2022-12-18T12:15:11.436Z,99.9
2022-12-18T12:20:11.524Z,99.9
2022-12-18T12:25:11.393Z,99.9
2022-12-18T12:30:11.395Z,99.9
2022-12-18T12:35:11.391Z,99.9
2022-12-18T12:40:41.449Z,99.9
2022-12-18T12:45:11.394Z,99.9
2022-12-18T12:50:11.417Z,99.9
2022-12-18T12:55:14.669Z,99.9
2022-12-18T13:00:11.537Z,99.9
2022-12-18T13:05:11.391Z,99.9
2022-12-18T13:10:11.392Z,99.9
2022-12-18T13:15:11.746Z,99.9
2022-12-18T13:20:11.588Z,99.9
2022-12-18T13:25:11.396Z,99.9
2022-12-18T13:30:11.390Z,99.9
2022-12-18T13:35:11.423Z,99.9
2022-12-18T13:40:11.526Z,99.9
2022-12-18T13:45:11.385Z,99.9
2022-12-18T13:50:11.363Z,99.9
2022-12-18T13:55:11.377Z,99.9
2022-12-18T14:00:11.496Z,99.9
2022-12-18T14:05:11.377Z,99.9
2022-12-18T14:10:33.770Z,99.9
2022-12-18T14:15:11.426Z,99.9
2022-12-18T14:20:11.485Z,99.9
2022-12-18T14:25:11.375Z,99.9
2022-12-18T14:30:11.372Z,99.9
2022-12-18T14:35:11.393Z,99.9
2022-12-18T14:40:11.698Z,99.9
2022-12-18T14:45:14.679Z,99.9
2022-12-18T14:50:11.387Z,99.9
2022-12-18T14:55:11.391Z,99.9
2022-12-18T15:00:17.339Z,99.9
2022-12-18T15:05:13.261Z,99.9
2022-12-18T15:10:11.376Z,99.9
2022-12-18T15:15:11.374Z,99.9
2022-12-18T15:20:11.371Z,99.9
2022-12-18T15:25:11.509Z,99.9
2022-12-18T15:30:11.386Z,99.9
2022-12-18T15:35:11.377Z,99.9
2022-12-18T15:40:11.378Z,99.9
2022-12-18T15:45:11.497Z,99.9
2022-12-18T15:50:11.377Z,99.9
2022-12-18T15:55:11.394Z,99.9
2022-12-18T16:00:11.391Z,99.9
2022-12-18T16:05:11.495Z,99.9
2022-12-18T16:10:11.374Z,99.9
2022-12-18T16:15:11.381Z,99.9
2022-12-18T16:20:11.375Z,99.9
2022-12-18T16:25:11.519Z,99.9
2022-12-18T16:30:11.386Z,99.9
2022-12-18T16:35:11.373Z,99.9
2022-12-18T16:40:11.393Z,99.9
2022-12-18T16:45:11.508Z,99.9
2022-12-18T16:50:11.398Z,99.9
2022-12-18T16:55:11.460Z,99.9
2022-12-18T17:00:11.385Z,99.9
2022-12-18T17:05:11.508Z,99.9
2022-12-18T17:10:11.383Z,99.9
2022-12-18T17:15:11.382Z,99.9
2022-12-18T17:20:11.385Z,99.9
2022-12-18T17:25:11.490Z,99.9
2022-12-18T17:30:11.383Z,99.9
2022-12-18T17:35:11.376Z,99.9
2022-12-18T17:40:11.376Z,99.9
2022-12-18T17:45:11.500Z,99.9
2022-12-18T17:50:11.379Z,99.9
2022-12-18T17:55:11.411Z,99.9
2022-12-18T18:00:11.390Z,99.9
2022-12-18T18:05:11.505Z,99.9
2022-12-18T18:10:11.389Z,99.9
2022-12-18T18:15:11.426Z,99.9
2022-12-18T18:20:11.380Z,99.9
2022-12-18T18:25:11.490Z,99.9
2022-12-18T18:30:11.387Z,99.9
2022-12-18T18:35:19.441Z,99.6
2022-12-18T18:40:11.374Z,99.6
2022-12-18T18:45:11.492Z,99.5
2022-12-18T18:50:11.379Z,99.9
2022-12-18T18:55:13.782Z,99.9
2022-12-18T19:00:11.388Z,99.9
2022-12-18T19:05:11.500Z,99.7
2022-12-18T19:10:11.390Z,98.8
2022-12-18T19:15:11.415Z,98.6
2022-12-18T19:20:11.739Z,98.5
2022-12-18T19:25:11.497Z,98
2022-12-18T19:30:11.378Z,97.6
2022-12-18T19:35:11.371Z,97.7
2022-12-18T19:40:12.485Z,97.4
2022-12-18T19:45:11.489Z,97
2022-12-18T19:50:11.425Z,96.8
2022-12-18T19:55:11.384Z,96.7
2022-12-18T20:00:15.504Z,96.5
2022-12-18T20:05:11.498Z,96
2022-12-18T20:10:11.454Z,96
2022-12-18T20:15:11.405Z,97.2
2022-12-18T20:20:11.365Z,95.8
2022-12-18T20:25:11.489Z,95.5
2022-12-18T20:30:11.362Z,95
2022-12-18T20:35:11.354Z,94.8
2022-12-18T20:40:11.354Z,94.5
2022-12-18T20:45:11.495Z,94.5
2022-12-18T20:50:11.357Z,94.5
2022-12-18T20:55:11.408Z,94.8
2022-12-18T21:00:11.384Z,94.6
2022-12-18T21:05:11.584Z,94.6
2022-12-18T21:10:11.367Z,94.7
2022-12-18T21:15:11.414Z,94.9
2022-12-18T21:20:11.370Z,94.9
2022-12-18T21:25:11.492Z,94.5
2022-12-18T21:30:11.362Z,94.6
2022-12-18T21:35:11.361Z,94.7
2022-12-18T21:40:11.373Z,94.7
2022-12-18T21:45:11.465Z,94.7
2022-12-18T21:50:11.376Z,94.6
2022-12-18T21:55:11.366Z,94.5
2022-12-18T22:00:11.566Z,94.4
2022-12-18T22:05:11.481Z,94.3
2022-12-18T22:10:11.353Z,94.2
2022-12-18T22:15:11.398Z,94.1
2022-12-18T22:20:11.361Z,93.9
2022-12-18T22:25:11.484Z,93.7
2022-12-18T22:30:11.354Z,93.6
2022-12-18T22:35:15.700Z,94.1
2022-12-18T22:40:11.360Z,94.2
2022-12-18T22:45:11.487Z,93.8
2022-12-18T22:50:11.383Z,93.8
2022-12-18T22:55:11.381Z,93.5
2022-12-18T23:00:11.385Z,93.4
2022-12-18T23:05:11.633Z,93.3
2022-12-18T23:10:11.382Z,93.2
2022-12-18T23:15:11.389Z,93.3
2022-12-18T23:20:11.381Z,93.6
2022-12-18T23:25:11.543Z,93.1
2022-12-18T23:30:11.378Z,93
2022-12-18T23:35:11.400Z,93
2022-12-18T23:40:11.394Z,92.8
2022-12-18T23:45:15.849Z,92.6
2022-12-18T23:50:11.374Z,92.6
2022-12-18T23:55:11.404Z,92.3
